sensor_id;sensor_type;location;lat;lon;timestamp;P1;durP1;ratioP1;P2;durP2;ratioP2
17032;SDS011;63208;52.178;21.016;2023-10-08T20:17:31;2.10;;;1.70;;
17032;SDS011;63208;52.178;21.016;2023-10-08T20:19:59;2.80;;;1.47;;
17032;SDS011;63208;52.178;21.016;2023-10-08T20:22:37;1.67;;;1.40;;
17032;SDS011;63208;52.178;21.016;2023-10-08T20:25:04;4.20;;;1.40;;
17032;SDS011;63208;52.178;21.016;2023-10-08T20:27:33;2.37;;;1.43;;
17032;SDS011;63208;52.178;21.016;2023-10-08T20:30:01;1.33;;;1.23;;
17032;SDS011;63208;52.178;21.016;2023-10-08T20:32:29;6.10;;;1.87;;
17032;SDS011;63208;52.178;21.016;2023-10-08T20:34:58;3.47;;;1.43;;
17032;SDS011;63208;52.178;21.016;2023-10-08T20:37:25;2.30;;;1.60;;
17032;SDS011;63208;52.178;21.016;2023-10-08T20:39:54;2.83;;;1.90;;
17032;SDS011;63208;52.178;21.016;2023-10-08T20:42:23;2.77;;;1.70;;
17032;SDS011;63208;52.178;21.016;2023-10-08T20:44:50;4.00;;;1.90;;
17032;SDS011;63208;52.178;21.016;2023-10-08T20:47:17;2.57;;;2.00;;
17032;SDS011;63208;52.178;21.016;2023-10-08T20:49:45;2.87;;;1.90;;
17032;SDS011;63208;52.178;21.016;2023-10-08T20:52:13;2.87;;;2.00;;
17032;SDS011;63208;52.178;21.016;2023-10-08T20:54:43;5.40;;;1.80;;
17032;SDS011;63208;52.178;21.016;2023-10-08T20:57:12;3.30;;;1.90;;
17032;SDS011;63208;52.178;21.016;2023-10-08T20:59:39;3.70;;;2.00;;
17032;SDS011;63208;52.178;21.016;2023-10-08T21:02:06;2.90;;;2.07;;
17032;SDS011;63208;52.178;21.016;2023-10-08T21:04:35;1.97;;;1.60;;
17032;SDS011;63208;52.178;21.016;2023-10-08T21:07:04;3.57;;;2.27;;
17032;SDS011;63208;52.178;21.016;2023-10-08T21:09:33;3.13;;;2.20;;
17032;SDS011;63208;52.178;21.016;2023-10-08T21:12:01;3.17;;;1.80;;
17032;SDS011;63208;52.178;21.016;2023-10-08T21:14:28;2.37;;;1.80;;
17032;SDS011;63208;52.178;21.016;2023-10-08T21:16:55;3.43;;;2.20;;
17032;SDS011;63208;52.178;21.016;2023-10-08T21:19:22;3.20;;;2.13;;
17032;SDS011;63208;52.178;21.016;2023-10-08T21:21:51;4.50;;;2.30;;
17032;SDS011;63208;52.178;21.016;2023-10-08T21:24:20;7.73;;;2.43;;
17032;SDS011;63208;52.178;21.016;2023-10-08T21:26:47;3.70;;;2.63;;
17032;SDS011;63208;52.178;21.016;2023-10-08T21:29:14;4.33;;;2.40;;
17032;SDS011;63208;52.178;21.016;2023-10-08T21:31:43;4.50;;;2.00;;
17032;SDS011;63208;52.178;21.016;2023-10-08T21:34:11;3.50;;;2.10;;
17032;SDS011;63208;52.178;21.016;2023-10-08T21:36:38;2.60;;;1.87;;
17032;SDS011;63208;52.178;21.016;2023-10-08T21:39:05;4.43;;;2.20;;
17032;SDS011;63208;52.178;21.016;2023-10-08T21:41:33;2.77;;;1.90;;
17032;SDS011;63208;52.178;21.016;2023-10-08T21:44:00;3.53;;;2.27;;
17032;SDS011;63208;52.178;21.016;2023-10-08T21:46:28;4.13;;;2.13;;
17032;SDS011;63208;52.178;21.016;2023-10-08T21:48:55;3.53;;;1.87;;
17032;SDS011;63208;52.178;21.016;2023-10-08T21:51:22;5.47;;;2.40;;
17032;SDS011;63208;52.178;21.016;2023-10-08T21:53:49;3.83;;;2.27;;
17032;SDS011;63208;52.178;21.016;2023-10-08T21:56:16;5.20;;;2.63;;
17032;SDS011;63208;52.178;21.016;2023-10-08T21:58:44;4.33;;;2.37;;
17032;SDS011;63208;52.178;21.016;2023-10-08T22:01:12;5.83;;;2.40;;
17032;SDS011;63208;52.178;21.016;2023-10-08T22:03:43;4.03;;;2.30;;
17032;SDS011;63208;52.178;21.016;2023-10-08T22:06:11;5.07;;;1.97;;
17032;SDS011;63208;52.178;21.016;2023-10-08T22:08:38;4.53;;;2.40;;
17032;SDS011;63208;52.178;21.016;2023-10-08T22:11:08;6.40;;;2.70;;
17032;SDS011;63208;52.178;21.016;2023-10-08T22:13:37;4.33;;;2.70;;
17032;SDS011;63208;52.178;21.016;2023-10-08T22:16:07;3.63;;;2.37;;
17032;SDS011;63208;52.178;21.016;2023-10-08T22:18:42;3.80;;;2.23;;
17032;SDS011;63208;52.178;21.016;2023-10-08T22:21:15;4.50;;;2.50;;
17032;SDS011;63208;52.178;21.016;2023-10-08T22:23:43;4.63;;;2.47;;
17032;SDS011;63208;52.178;21.016;2023-10-08T22:26:11;6.17;;;2.90;;
17032;SDS011;63208;52.178;21.016;2023-10-08T22:28:39;5.17;;;2.47;;
17032;SDS011;63208;52.178;21.016;2023-10-08T22:31:08;5.20;;;2.60;;
17032;SDS011;63208;52.178;21.016;2023-10-08T22:33:37;5.00;;;2.63;;
17032;SDS011;63208;52.178;21.016;2023-10-08T22:36:06;7.60;;;2.83;;
17032;SDS011;63208;52.178;21.016;2023-10-08T22:38:50;5.10;;;2.70;;
17032;SDS011;63208;52.178;21.016;2023-10-08T22:41:18;4.00;;;3.00;;
17032;SDS011;63208;52.178;21.016;2023-10-08T22:43:47;7.03;;;3.03;;
17032;SDS011;63208;52.178;21.016;2023-10-08T22:46:20;6.10;;;2.80;;
17032;SDS011;63208;52.178;21.016;2023-10-08T22:48:50;7.00;;;3.03;;
17032;SDS011;63208;52.178;21.016;2023-10-08T22:51:17;4.93;;;3.10;;
17032;SDS011;63208;52.178;21.016;2023-10-08T22:53:49;6.57;;;3.00;;
17032;SDS011;63208;52.178;21.016;2023-10-08T22:56:16;7.57;;;3.23;;
17032;SDS011;63208;52.178;21.016;2023-10-08T22:58:44;5.50;;;3.43;;
17032;SDS011;63208;52.178;21.016;2023-10-08T23:01:11;6.70;;;3.80;;
17032;SDS011;63208;52.178;21.016;2023-10-08T23:03:40;5.77;;;3.03;;
17032;SDS011;63208;52.178;21.016;2023-10-08T23:06:08;6.63;;;3.40;;
17032;SDS011;63208;52.178;21.016;2023-10-08T23:08:36;5.83;;;3.00;;
17032;SDS011;63208;52.178;21.016;2023-10-08T23:11:04;5.90;;;3.53;;
17032;SDS011;63208;52.178;21.016;2023-10-08T23:13:32;6.37;;;3.07;;
17032;SDS011;63208;52.178;21.016;2023-10-08T23:16:01;6.17;;;3.70;;
17032;SDS011;63208;52.178;21.016;2023-10-08T23:18:29;7.40;;;3.23;;
17032;SDS011;63208;52.178;21.016;2023-10-08T23:20:58;6.53;;;3.30;;
17032;SDS011;63208;52.178;21.016;2023-10-08T23:23:25;6.40;;;3.17;;
17032;SDS011;63208;52.178;21.016;2023-10-08T23:25:52;6.23;;;3.17;;
17032;SDS011;63208;52.178;21.016;2023-10-08T23:28:20;3.87;;;3.00;;
17032;SDS011;63208;52.178;21.016;2023-10-08T23:30:48;4.80;;;3.10;;
17032;SDS011;63208;52.178;21.016;2023-10-08T23:33:15;6.70;;;3.40;;
17032;SDS011;63208;52.178;21.016;2023-10-08T23:35:42;7.10;;;3.07;;
17032;SDS011;63208;52.178;21.016;2023-10-08T23:38:11;6.60;;;3.20;;
17032;SDS011;63208;52.178;21.016;2023-10-08T23:40:44;5.13;;;2.97;;
17032;SDS011;63208;52.178;21.016;2023-10-08T23:43:12;5.40;;;2.77;;
17032;SDS011;63208;52.178;21.016;2023-10-08T23:45:42;5.40;;;2.83;;
17032;SDS011;63208;52.178;21.016;2023-10-08T23:48:18;6.13;;;2.63;;
17032;SDS011;63208;52.178;21.016;2023-10-08T23:50:46;4.03;;;3.17;;
17032;SDS011;63208;52.178;21.016;2023-10-08T23:53:19;4.50;;;2.83;;
17032;SDS011;63208;52.178;21.016;2023-10-08T23:55:54;8.93;;;2.90;;
17032;SDS011;63208;52.178;21.016;2023-10-08T23:58:30;8.10;;;3.30;;
